createdAt,value
2018-08-04T09:43:23.494Z,29.70
2018-08-04T09:45:51.562Z,29.80
2018-08-04T09:48:19.593Z,29.70
2018-08-04T09:50:47.689Z,30.00
2018-08-04T09:53:15.768Z,30.00
2018-08-04T09:55:43.851Z,29.40
2018-08-04T09:58:12.990Z,29.90
2018-08-04T10:00:46.503Z,29.90
2018-08-04T10:03:14.590Z,30.00
2018-08-04T10:05:42.703Z,29.80
2018-08-04T10:08:10.778Z,29.70
2018-08-04T10:10:38.870Z,29.60
2018-08-04T10:13:06.975Z,29.70
2018-08-04T10:15:35.093Z,28.90
2018-08-04T10:18:03.151Z,28.80
2018-08-04T10:20:31.210Z,28.80
2018-08-04T10:22:59.276Z,28.70
2018-08-04T10:25:27.373Z,28.50
2018-08-04T10:27:55.470Z,28.50
2018-08-04T10:30:23.566Z,28.80
2018-08-04T10:32:51.634Z,28.50
2018-08-04T10:35:19.720Z,28.40
2018-08-04T10:37:47.806Z,28.50
2018-08-04T10:40:15.902Z,28.40
2018-08-04T10:42:44.008Z,28.40
2018-08-04T10:45:12.081Z,28.70
2018-08-04T10:47:40.144Z,28.60
2018-08-04T10:50:08.276Z,28.50
2018-08-04T10:52:37.272Z,28.50
2018-08-04T10:55:05.622Z,28.50
2018-08-04T11:00:01.588Z,28.10
2018-08-04T11:02:30.016Z,27.90
2018-08-04T11:04:58.084Z,27.60
2018-08-04T11:07:26.127Z,27.50
2018-08-04T11:09:54.248Z,27.60
2018-08-04T11:12:22.426Z,28.00
2018-08-04T11:14:50.580Z,28.10
2018-08-04T11:17:18.673Z,28.30
2018-08-04T11:19:46.791Z,28.20
2018-08-04T11:22:14.861Z,28.20
2018-08-04T11:24:42.962Z,28.00
2018-08-04T11:27:11.035Z,27.70
2018-08-04T11:29:39.183Z,28.10
2018-08-04T11:32:07.253Z,28.40
2018-08-04T11:34:35.371Z,28.70
2018-08-04T11:37:03.461Z,28.80
2018-08-04T11:39:31.555Z,29.20
2018-08-04T11:41:59.696Z,29.40
2018-08-04T11:44:27.783Z,29.30
2018-08-04T11:46:55.888Z,28.80
2018-08-04T11:49:24.019Z,28.80
2018-08-04T11:51:52.113Z,29.00
2018-08-04T11:54:20.261Z,27.90
2018-08-04T11:56:48.372Z,27.60
2018-08-04T11:59:16.411Z,27.50
2018-08-04T12:01:44.492Z,27.60
2018-08-04T12:04:12.583Z,27.30
2018-08-04T12:06:40.671Z,27.50
2018-08-04T12:09:10.915Z,27.20
2018-08-04T12:11:38.996Z,27.40
2018-08-04T12:14:07.626Z,27.10
2018-08-04T12:16:36.750Z,27.30
2018-08-04T12:19:05.057Z,27.10
2018-08-04T12:21:33.186Z,26.90
2018-08-04T12:24:01.304Z,26.60
2018-08-04T12:26:29.399Z,27.00
2018-08-04T12:28:57.457Z,27.00
2018-08-04T12:31:25.872Z,26.90
2018-08-04T12:33:54.066Z,27.10
2018-08-04T12:36:22.216Z,26.90
2018-08-04T12:38:50.322Z,27.50
2018-08-04T12:41:18.399Z,26.60
2018-08-04T12:43:46.595Z,26.50
2018-08-04T12:46:14.686Z,26.80
2018-08-04T12:48:42.763Z,26.70
2018-08-04T12:51:10.863Z,26.40
2018-08-04T12:53:38.946Z,26.40
2018-08-04T12:56:07.093Z,26.90
2018-08-04T12:58:35.191Z,26.50
2018-08-04T13:01:03.276Z,27.00
2018-08-04T13:03:31.439Z,27.30
2018-08-04T13:05:59.546Z,27.20
2018-08-04T13:08:27.604Z,27.10
2018-08-04T13:10:55.678Z,27.40
2018-08-04T13:13:23.768Z,27.60
2018-08-04T13:15:51.849Z,28.30
2018-08-04T13:18:19.915Z,28.00
2018-08-04T13:20:47.991Z,28.10
2018-08-04T13:23:16.044Z,27.70
2018-08-04T13:25:44.123Z,27.90
2018-08-04T13:28:12.199Z,27.90
2018-08-04T13:30:40.325Z,28.20
2018-08-04T13:33:08.419Z,28.20
2018-08-04T13:35:36.537Z,28.40
2018-08-04T13:38:04.642Z,28.90
2018-08-04T13:40:33.230Z,28.70
2018-08-04T13:45:29.264Z,29.40
2018-08-04T13:47:57.441Z,29.50
2018-08-04T13:50:25.583Z,29.80
2018-08-04T13:52:53.588Z,29.80
2018-08-04T13:55:21.648Z,29.80
2018-08-04T13:57:49.750Z,30.10
2018-08-04T14:00:17.816Z,30.00
2018-08-04T14:02:45.931Z,29.80
2018-08-04T14:05:14.044Z,29.50
2018-08-04T14:07:42.177Z,30.00
2018-08-04T14:10:10.306Z,30.00
2018-08-04T14:15:06.312Z,30.00
2018-08-04T14:17:34.483Z,30.60
2018-08-04T14:22:30.429Z,30.10
2018-08-04T14:24:58.493Z,29.80
2018-08-04T14:27:26.595Z,29.40
2018-08-04T14:29:54.695Z,29.80
2018-08-04T14:32:22.796Z,29.70
2018-08-04T14:34:50.897Z,30.00
2018-08-04T14:37:19.112Z,30.10
2018-08-04T14:39:47.200Z,30.00
2018-08-04T14:42:15.349Z,30.20
2018-08-04T14:44:43.476Z,30.40
2018-08-04T14:47:11.583Z,30.40
2018-08-04T14:49:39.692Z,29.90
2018-08-04T14:52:07.734Z,30.30
2018-08-04T14:54:35.801Z,30.00
2018-08-04T14:57:03.900Z,30.20
2018-08-04T15:01:59.963Z,30.40
2018-08-04T15:04:28.118Z,30.60
2018-08-04T15:06:56.312Z,30.70
2018-08-04T15:09:24.443Z,30.60
2018-08-04T15:11:52.591Z,30.70
2018-08-04T15:14:20.680Z,30.00
2018-08-04T15:16:48.803Z,30.40
2018-08-04T15:19:16.909Z,30.40
2018-08-04T15:21:45.007Z,30.30
2018-08-04T15:24:13.123Z,30.70
2018-08-04T15:26:41.220Z,30.70
2018-08-04T15:29:09.321Z,30.50
2018-08-04T15:31:37.363Z,30.70
2018-08-04T15:34:05.529Z,30.70
2018-08-04T15:36:33.589Z,31.20
2018-08-04T15:39:01.676Z,31.30
2018-08-04T15:41:29.801Z,31.40
2018-08-04T15:43:58.005Z,31.50
2018-08-04T15:48:54.093Z,32.50
2018-08-04T15:51:22.147Z,32.70
2018-08-04T15:53:50.257Z,33.50
2018-08-04T15:56:18.366Z,34.80
2018-08-04T15:58:46.497Z,34.30
2018-08-04T16:01:14.533Z,34.80
2018-08-04T16:03:42.636Z,34.90
2018-08-04T16:06:10.756Z,34.90
2018-08-04T16:08:39.076Z,35.40
2018-08-04T16:11:07.330Z,35.60
2018-08-04T16:13:35.421Z,35.60
2018-08-04T16:16:03.506Z,35.40
2018-08-04T16:18:31.611Z,35.50
2018-08-04T16:20:59.721Z,35.50
2018-08-04T16:23:27.797Z,35.60
2018-08-04T16:25:55.879Z,36.10
2018-08-04T16:28:23.992Z,36.60
2018-08-04T16:30:52.096Z,37.00
2018-08-04T16:33:20.179Z,37.10
2018-08-04T16:38:16.184Z,36.90
2018-08-04T16:40:44.275Z,36.70
2018-08-04T16:43:12.347Z,37.10
2018-08-04T16:45:40.427Z,37.50
2018-08-04T16:50:36.423Z,37.60
2018-08-04T16:53:04.571Z,37.10
2018-08-04T16:55:32.812Z,36.80
2018-08-04T16:58:00.946Z,36.60
2018-08-04T17:00:29.089Z,36.40
2018-08-04T17:02:57.208Z,36.60
2018-08-04T17:05:25.319Z,36.90
2018-08-04T17:07:53.450Z,38.20
2018-08-04T17:10:21.547Z,39.70
2018-08-04T17:12:49.631Z,40.50
2018-08-04T17:15:17.802Z,40.80
2018-08-04T17:17:45.885Z,41.90
2018-08-04T17:20:13.980Z,41.60
2018-08-04T17:22:42.075Z,41.70
2018-08-04T17:25:10.172Z,41.70
2018-08-04T17:27:38.259Z,41.80
2018-08-04T17:30:06.566Z,42.00
2018-08-04T17:32:34.692Z,42.10
2018-08-04T17:35:02.778Z,42.50
2018-08-04T17:37:30.931Z,42.70
2018-08-04T17:39:58.968Z,42.80
2018-08-04T17:42:27.054Z,42.80
2018-08-04T17:44:55.151Z,42.90
2018-08-04T17:47:23.324Z,43.00
2018-08-04T17:49:51.418Z,42.80
2018-08-04T17:52:19.595Z,42.70
2018-08-04T17:54:47.688Z,42.90
2018-08-04T17:57:15.852Z,43.00
2018-08-04T17:59:43.923Z,43.40
2018-08-04T18:02:12.004Z,44.10
2018-08-04T18:04:40.112Z,44.50
2018-08-04T18:07:08.203Z,44.90
2018-08-04T18:09:36.323Z,45.10
2018-08-04T18:12:04.418Z,45.20
2018-08-04T18:14:32.514Z,45.40
2018-08-04T18:17:00.992Z,45.50
2018-08-04T18:19:29.088Z,45.60
2018-08-04T18:21:57.195Z,46.00
2018-08-04T18:24:25.283Z,46.10
2018-08-04T18:26:53.661Z,46.20
2018-08-04T18:29:21.775Z,46.50
2018-08-04T18:34:17.887Z,46.90
2018-08-04T18:36:46.021Z,47.00
2018-08-04T18:39:14.131Z,47.10
2018-08-04T18:44:10.195Z,47.20
2018-08-04T18:46:38.254Z,47.40
2018-08-04T18:49:06.443Z,47.40
2018-08-04T18:51:34.627Z,47.40
2018-08-04T18:54:02.788Z,47.40
2018-08-04T18:56:30.851Z,47.50
2018-08-04T18:58:58.940Z,47.50
2018-08-04T19:01:27.098Z,47.60
2018-08-04T19:03:55.435Z,48.30
2018-08-04T19:06:23.609Z,47.80
2018-08-04T19:08:51.690Z,48.00
2018-08-04T19:11:19.803Z,48.00
2018-08-04T19:13:47.903Z,48.10
2018-08-04T19:16:16.940Z,49.40
2018-08-04T19:18:45.739Z,50.50
2018-08-04T19:21:13.878Z,51.50
2018-08-04T19:23:42.072Z,52.90
2018-08-04T19:26:10.180Z,53.60
2018-08-04T19:28:38.365Z,54.20
2018-08-04T19:31:06.420Z,54.70
2018-08-04T19:33:34.836Z,55.10
2018-08-04T19:36:02.922Z,55.60
2018-08-04T19:38:31.058Z,55.90
2018-08-04T19:40:59.124Z,56.20
2018-08-04T19:45:55.104Z,57.00
2018-08-04T19:48:23.350Z,57.20
2018-08-04T19:50:51.473Z,57.50
2018-08-04T19:53:19.571Z,57.80
2018-08-04T19:55:47.667Z,57.90
2018-08-04T19:58:15.723Z,58.00
2018-08-04T20:00:43.840Z,58.30
2018-08-04T20:03:11.920Z,59.00
2018-08-04T20:05:40.024Z,59.00
2018-08-04T20:08:08.189Z,59.20
2018-08-04T20:10:36.515Z,59.50
2018-08-04T20:13:04.821Z,60.00
2018-08-04T20:15:32.943Z,60.10
2018-08-04T20:18:01.263Z,60.20
2018-08-04T20:20:29.370Z,60.30
2018-08-04T20:22:57.479Z,60.60
2018-08-04T20:25:25.606Z,60.70
2018-08-04T20:27:53.731Z,60.80
2018-08-04T20:30:21.868Z,60.90
2018-08-04T20:32:49.992Z,61.10
2018-08-04T20:35:18.148Z,61.30
2018-08-04T20:40:14.191Z,61.60
2018-08-04T20:42:42.333Z,61.60
2018-08-04T20:45:10.425Z,61.80
2018-08-04T20:47:38.620Z,61.70
2018-08-04T20:50:06.708Z,61.50
2018-08-04T20:52:34.900Z,61.60
2018-08-04T20:55:02.992Z,61.60
2018-08-04T20:57:31.117Z,61.70
2018-08-04T21:02:27.244Z,61.90
2018-08-04T21:04:55.368Z,62.10
2018-08-04T21:07:23.478Z,62.10
2018-08-04T21:09:51.824Z,62.30
2018-08-04T21:12:19.951Z,62.70
2018-08-04T21:14:48.033Z,62.80
2018-08-04T21:17:16.094Z,62.60
2018-08-04T21:19:44.168Z,62.90
2018-08-04T21:22:12.266Z,62.90
2018-08-04T21:24:40.395Z,63.10
2018-08-04T21:27:08.447Z,63.10
2018-08-04T21:29:36.521Z,63.10
2018-08-04T21:32:04.602Z,63.10
2018-08-04T21:34:32.724Z,63.00
2018-08-04T21:37:00.812Z,63.30
2018-08-04T21:39:28.925Z,63.30
2018-08-04T21:41:57.019Z,63.20
2018-08-04T21:44:25.112Z,63.30
2018-08-04T21:46:53.219Z,63.40
2018-08-04T21:49:21.480Z,63.30
2018-08-04T21:51:50.697Z,63.20
2018-08-04T21:54:19.917Z,63.20
2018-08-04T21:56:47.642Z,63.10
2018-08-04T21:59:15.726Z,63.20
2018-08-04T22:01:49.221Z,63.10
2018-08-04T22:04:17.336Z,63.30
2018-08-04T22:07:55.012Z,63.40
2018-08-04T22:10:23.111Z,63.70
2018-08-04T22:12:51.246Z,64.20
2018-08-04T22:15:19.356Z,64.50
2018-08-04T22:17:47.538Z,64.80
2018-08-04T22:20:16.980Z,65.20
2018-08-04T22:25:18.347Z,66.00
2018-08-04T22:27:46.480Z,65.40
2018-08-04T22:30:15.707Z,65.50
2018-08-04T22:32:44.419Z,65.50
2018-08-04T22:35:12.556Z,65.70
2018-08-04T22:37:41.081Z,65.90
2018-08-04T22:40:10.196Z,65.90
2018-08-04T22:42:38.656Z,66.00
2018-08-04T22:45:49.638Z,66.00
2018-08-04T22:48:17.716Z,66.00
2018-08-04T22:50:46.060Z,65.90
2018-08-04T22:53:14.277Z,65.90
2018-08-04T22:55:42.878Z,65.80
2018-08-04T22:58:11.536Z,65.90
2018-08-04T23:00:40.374Z,65.90
2018-08-04T23:03:08.504Z,66.00
2018-08-04T23:05:36.977Z,66.10
2018-08-04T23:08:05.215Z,66.20
2018-08-04T23:10:33.344Z,66.40
2018-08-04T23:13:01.479Z,66.40
2018-08-04T23:15:29.887Z,66.50
2018-08-04T23:17:58.359Z,66.70
2018-08-04T23:20:27.048Z,66.80
2018-08-04T23:22:55.144Z,67.10
2018-08-04T23:25:23.238Z,67.40
2018-08-04T23:27:52.320Z,67.80
2018-08-04T23:30:21.123Z,68.00
2018-08-04T23:32:49.842Z,68.60
2018-08-04T23:35:17.911Z,69.00
2018-08-04T23:37:46.145Z,69.30
2018-08-04T23:40:14.235Z,69.40
2018-08-04T23:42:42.357Z,69.20
2018-08-04T23:45:10.420Z,69.50
2018-08-04T23:47:38.515Z,70.00
2018-08-04T23:50:06.646Z,70.30
2018-08-04T23:52:34.738Z,70.80
2018-08-04T23:55:02.807Z,71.20
2018-08-04T23:57:31.098Z,71.50
2018-08-04T23:59:59.210Z,71.50
